sensor_id;sensor_type;location;lat;lon;timestamp;P1;durP1;ratioP1;P2;durP2;ratioP2
78368;SDS011;71113;43.092;-89.268;2023-08-01T00:00:17;1.13;;;0.90;;
78368;SDS011;71113;43.092;-89.268;2023-08-01T00:02:43;2.10;;;1.20;;
78368;SDS011;71113;43.092;-89.268;2023-08-01T00:05:09;1.85;;;0.90;;
78368;SDS011;71113;43.092;-89.268;2023-08-01T00:07:35;0.75;;;0.63;;
78368;SDS011;71113;43.092;-89.268;2023-08-01T00:10:01;1.35;;;0.90;;
78368;SDS011;71113;43.092;-89.268;2023-08-01T00:12:28;0.98;;;0.57;;
78368;SDS011;71113;43.092;-89.268;2023-08-01T00:14:53;1.48;;;0.90;;
78368;SDS011;71113;43.092;-89.268;2023-08-01T00:17:19;1.92;;;1.00;;
78368;SDS011;71113;43.092;-89.268;2023-08-01T00:19:46;1.23;;;0.93;;
78368;SDS011;71113;43.092;-89.268;2023-08-01T00:22:12;1.02;;;0.90;;
78368;SDS011;71113;43.092;-89.268;2023-08-01T00:24:38;1.20;;;0.90;;
78368;SDS011;71113;43.092;-89.268;2023-08-01T00:27:04;1.40;;;0.93;;
78368;SDS011;71113;43.092;-89.268;2023-08-01T00:29:30;1.17;;;0.70;;
78368;SDS011;71113;43.092;-89.268;2023-08-01T00:31:56;0.98;;;0.73;;
78368;SDS011;71113;43.092;-89.268;2023-08-01T00:34:22;1.00;;;0.68;;
78368;SDS011;71113;43.092;-89.268;2023-08-01T00:36:48;1.33;;;0.82;;
78368;SDS011;71113;43.092;-89.268;2023-08-01T00:39:14;1.10;;;0.70;;
78368;SDS011;71113;43.092;-89.268;2023-08-01T00:41:40;0.90;;;0.73;;
78368;SDS011;71113;43.092;-89.268;2023-08-01T00:44:06;1.02;;;0.63;;
78368;SDS011;71113;43.092;-89.268;2023-08-01T00:46:32;0.93;;;0.93;;
78368;SDS011;71113;43.092;-89.268;2023-08-01T00:48:58;1.48;;;0.82;;
78368;SDS011;71113;43.092;-89.268;2023-08-01T00:51:26;1.60;;;0.82;;
78368;SDS011;71113;43.092;-89.268;2023-08-01T00:53:52;0.70;;;0.57;;
78368;SDS011;71113;43.092;-89.268;2023-08-01T00:56:18;0.95;;;0.60;;
78368;SDS011;71113;43.092;-89.268;2023-08-01T00:58:45;1.13;;;0.73;;
78368;SDS011;71113;43.092;-89.268;2023-08-01T01:01:11;1.08;;;0.77;;
78368;SDS011;71113;43.092;-89.268;2023-08-01T01:03:37;0.85;;;0.70;;
78368;SDS011;71113;43.092;-89.268;2023-08-01T01:06:13;0.80;;;0.63;;
78368;SDS011;71113;43.092;-89.268;2023-08-01T01:08:47;0.98;;;0.57;;
78368;SDS011;71113;43.092;-89.268;2023-08-01T01:11:13;0.45;;;0.40;;
78368;SDS011;71113;43.092;-89.268;2023-08-01T01:13:39;0.57;;;0.40;;
78368;SDS011;71113;43.092;-89.268;2023-08-01T01:16:06;0.60;;;0.50;;
78368;SDS011;71113;43.092;-89.268;2023-08-01T01:18:32;0.60;;;0.60;;
78368;SDS011;71113;43.092;-89.268;2023-08-01T01:20:58;0.50;;;0.50;;
78368;SDS011;71113;43.092;-89.268;2023-08-01T01:23:24;0.88;;;0.70;;
78368;SDS011;71113;43.092;-89.268;2023-08-01T01:25:51;1.02;;;0.65;;
78368;SDS011;71113;43.092;-89.268;2023-08-01T01:28:18;1.42;;;0.70;;
78368;SDS011;71113;43.092;-89.268;2023-08-01T01:30:45;0.68;;;0.57;;
78368;SDS011;71113;43.092;-89.268;2023-08-01T01:33:12;0.32;;;0.32;;
78368;SDS011;71113;43.092;-89.268;2023-08-01T01:35:38;0.50;;;0.40;;
78368;SDS011;71113;43.092;-89.268;2023-08-01T01:38:04;0.57;;;0.40;;
78368;SDS011;71113;43.092;-89.268;2023-08-01T01:40:30;0.63;;;0.60;;
78368;SDS011;71113;43.092;-89.268;2023-08-01T01:42:57;0.60;;;0.43;;
78368;SDS011;71113;43.092;-89.268;2023-08-01T01:45:23;1.02;;;0.68;;
78368;SDS011;71113;43.092;-89.268;2023-08-01T01:47:49;0.95;;;0.55;;
78368;SDS011;71113;43.092;-89.268;2023-08-01T01:50:15;0.63;;;0.57;;
78368;SDS011;71113;43.092;-89.268;2023-08-01T01:52:41;0.47;;;0.47;;
78368;SDS011;71113;43.092;-89.268;2023-08-01T01:55:07;0.90;;;0.60;;
78368;SDS011;71113;43.092;-89.268;2023-08-01T01:57:33;1.73;;;0.70;;
78368;SDS011;71113;43.092;-89.268;2023-08-01T02:00:01;3.88;;;0.77;;
78368;SDS011;71113;43.092;-89.268;2023-08-01T02:02:30;1.98;;;0.93;;
78368;SDS011;71113;43.092;-89.268;2023-08-01T02:04:56;1.73;;;0.80;;
78368;SDS011;71113;43.092;-89.268;2023-08-01T02:07:22;1.27;;;0.73;;
78368;SDS011;71113;43.092;-89.268;2023-08-01T02:09:48;2.47;;;0.95;;
78368;SDS011;71113;43.092;-89.268;2023-08-01T02:12:14;4.55;;;0.88;;
78368;SDS011;71113;43.092;-89.268;2023-08-01T02:15:00;1.73;;;1.20;;
78368;SDS011;71113;43.092;-89.268;2023-08-01T02:17:26;1.65;;;0.57;;
78368;SDS011;71113;43.092;-89.268;2023-08-01T02:19:52;5.40;;;1.55;;
78368;SDS011;71113;43.092;-89.268;2023-08-01T02:22:18;2.03;;;1.20;;
78368;SDS011;71113;43.092;-89.268;2023-08-01T02:24:44;2.58;;;0.85;;
78368;SDS011;71113;43.092;-89.268;2023-08-01T02:27:10;5.70;;;1.27;;
78368;SDS011;71113;43.092;-89.268;2023-08-01T02:29:36;2.72;;;0.90;;
78368;SDS011;71113;43.092;-89.268;2023-08-01T02:32:01;10.13;;;1.25;;
78368;SDS011;71113;43.092;-89.268;2023-08-01T02:34:27;2.53;;;0.75;;
78368;SDS011;71113;43.092;-89.268;2023-08-01T02:36:53;6.47;;;1.15;;
78368;SDS011;71113;43.092;-89.268;2023-08-01T02:39:19;2.33;;;1.00;;
78368;SDS011;71113;43.092;-89.268;2023-08-01T02:41:45;2.78;;;1.20;;
78368;SDS011;71113;43.092;-89.268;2023-08-01T02:44:11;2.00;;;0.90;;
78368;SDS011;71113;43.092;-89.268;2023-08-01T02:46:38;1.83;;;0.90;;
78368;SDS011;71113;43.092;-89.268;2023-08-01T02:49:04;1.73;;;0.95;;
78368;SDS011;71113;43.092;-89.268;2023-08-01T02:51:29;3.92;;;1.10;;
78368;SDS011;71113;43.092;-89.268;2023-08-01T02:53:55;1.30;;;0.90;;
78368;SDS011;71113;43.092;-89.268;2023-08-01T02:56:21;1.75;;;1.15;;
78368;SDS011;71113;43.092;-89.268;2023-08-01T02:58:47;1.77;;;0.98;;
78368;SDS011;71113;43.092;-89.268;2023-08-01T03:01:13;2.78;;;1.00;;
78368;SDS011;71113;43.092;-89.268;2023-08-01T03:03:39;1.38;;;0.90;;
78368;SDS011;71113;43.092;-89.268;2023-08-01T03:06:06;1.85;;;1.02;;
78368;SDS011;71113;43.092;-89.268;2023-08-01T03:08:32;1.83;;;1.02;;
78368;SDS011;71113;43.092;-89.268;2023-08-01T03:10:59;2.72;;;1.40;;
78368;SDS011;71113;43.092;-89.268;2023-08-01T03:13:25;1.45;;;0.80;;
78368;SDS011;71113;43.092;-89.268;2023-08-01T03:15:51;1.25;;;0.93;;
78368;SDS011;71113;43.092;-89.268;2023-08-01T03:18:17;1.55;;;1.10;;
78368;SDS011;71113;43.092;-89.268;2023-08-01T03:20:42;2.20;;;1.10;;
78368;SDS011;71113;43.092;-89.268;2023-08-01T03:23:10;2.35;;;1.27;;
78368;SDS011;71113;43.092;-89.268;2023-08-01T03:25:36;2.70;;;1.27;;
78368;SDS011;71113;43.092;-89.268;2023-08-01T03:28:03;1.17;;;0.90;;
78368;SDS011;71113;43.092;-89.268;2023-08-01T03:30:31;1.02;;;0.85;;
78368;SDS011;71113;43.092;-89.268;2023-08-01T03:33:00;2.08;;;1.10;;
78368;SDS011;71113;43.092;-89.268;2023-08-01T03:35:27;1.38;;;0.95;;
78368;SDS011;71113;43.092;-89.268;2023-08-01T03:37:53;1.88;;;1.10;;
78368;SDS011;71113;43.092;-89.268;2023-08-01T03:40:19;2.22;;;1.00;;
78368;SDS011;71113;43.092;-89.268;2023-08-01T03:42:45;2.88;;;1.17;;
78368;SDS011;71113;43.092;-89.268;2023-08-01T03:45:11;1.30;;;0.93;;
78368;SDS011;71113;43.092;-89.268;2023-08-01T03:47:37;1.73;;;1.05;;
78368;SDS011;71113;43.092;-89.268;2023-08-01T03:50:03;1.67;;;1.20;;
78368;SDS011;71113;43.092;-89.268;2023-08-01T03:52:29;2.00;;;1.20;;
78368;SDS011;71113;43.092;-89.268;2023-08-01T03:54:55;2.05;;;1.00;;
78368;SDS011;71113;43.092;-89.268;2023-08-01T03:57:21;1.92;;;1.30;;
78368;SDS011;71113;43.092;-89.268;2023-08-01T03:59:47;1.75;;;0.90;;
78368;SDS011;71113;43.092;-89.268;2023-08-01T04:02:13;1.73;;;0.90;;
78368;SDS011;71113;43.092;-89.268;2023-08-01T04:04:39;1.40;;;0.95;;
78368;SDS011;71113;43.092;-89.268;2023-08-01T04:07:05;1.40;;;0.80;;
78368;SDS011;71113;43.092;-89.268;2023-08-01T04:09:31;1.83;;;1.08;;
78368;SDS011;71113;43.092;-89.268;2023-08-01T04:11:57;2.05;;;1.00;;
78368;SDS011;71113;43.092;-89.268;2023-08-01T04:14:23;1.20;;;0.73;;
78368;SDS011;71113;43.092;-89.268;2023-08-01T04:16:49;1.52;;;0.82;;
78368;SDS011;71113;43.092;-89.268;2023-08-01T04:19:14;1.70;;;1.10;;
78368;SDS011;71113;43.092;-89.268;2023-08-01T04:21:40;1.20;;;0.80;;
78368;SDS011;71113;43.092;-89.268;2023-08-01T04:24:06;1.42;;;0.88;;
78368;SDS011;71113;43.092;-89.268;2023-08-01T04:26:32;1.08;;;0.88;;
78368;SDS011;71113;43.092;-89.268;2023-08-01T04:28:58;1.67;;;0.98;;
78368;SDS011;71113;43.092;-89.268;2023-08-01T04:31:24;1.73;;;1.05;;
78368;SDS011;71113;43.092;-89.268;2023-08-01T04:33:50;1.80;;;0.98;;
78368;SDS011;71113;43.092;-89.268;2023-08-01T04:36:16;0.88;;;0.63;;
78368;SDS011;71113;43.092;-89.268;2023-08-01T04:38:41;1.00;;;0.70;;
78368;SDS011;71113;43.092;-89.268;2023-08-01T04:41:07;1.40;;;0.82;;
78368;SDS011;71113;43.092;-89.268;2023-08-01T04:43:33;1.05;;;0.85;;
78368;SDS011;71113;43.092;-89.268;2023-08-01T04:45:59;0.77;;;0.70;;
78368;SDS011;71113;43.092;-89.268;2023-08-01T04:48:25;1.33;;;0.77;;
78368;SDS011;71113;43.092;-89.268;2023-08-01T04:50:51;1.02;;;0.70;;
78368;SDS011;71113;43.092;-89.268;2023-08-01T04:53:17;1.65;;;0.70;;
78368;SDS011;71113;43.092;-89.268;2023-08-01T04:55:43;0.80;;;0.77;;
78368;SDS011;71113;43.092;-89.268;2023-08-01T04:58:08;1.05;;;0.73;;
78368;SDS011;71113;43.092;-89.268;2023-08-01T05:00:34;1.10;;;0.70;;
78368;SDS011;71113;43.092;-89.268;2023-08-01T05:03:00;1.48;;;0.90;;
78368;SDS011;71113;43.092;-89.268;2023-08-01T05:05:26;0.98;;;0.70;;
78368;SDS011;71113;43.092;-89.268;2023-08-01T05:07:52;0.65;;;0.65;;
78368;SDS011;71113;43.092;-89.268;2023-08-01T05:10:18;0.95;;;0.52;;
78368;SDS011;71113;43.092;-89.268;2023-08-01T05:12:44;0.90;;;0.70;;
78368;SDS011;71113;43.092;-89.268;2023-08-01T05:15:10;1.35;;;0.80;;
78368;SDS011;71113;43.092;-89.268;2023-08-01T05:17:36;1.30;;;0.80;;
78368;SDS011;71113;43.092;-89.268;2023-08-01T05:20:02;1.52;;;0.82;;
78368;SDS011;71113;43.092;-89.268;2023-08-01T05:22:29;1.30;;;0.70;;
78368;SDS011;71113;43.092;-89.268;2023-08-01T05:24:55;1.55;;;0.90;;
78368;SDS011;71113;43.092;-89.268;2023-08-01T05:27:21;1.80;;;1.08;;
78368;SDS011;71113;43.092;-89.268;2023-08-01T05:29:47;0.85;;;0.50;;
78368;SDS011;71113;43.092;-89.268;2023-08-01T05:32:13;0.90;;;0.73;;
78368;SDS011;71113;43.092;-89.268;2023-08-01T05:34:39;2.10;;;0.77;;
78368;SDS011;71113;43.092;-89.268;2023-08-01T05:37:05;0.70;;;0.63;;
78368;SDS011;71113;43.092;-89.268;2023-08-01T05:39:44;1.35;;;0.82;;
78368;SDS011;71113;43.092;-89.268;2023-08-01T05:42:10;0.80;;;0.40;;
78368;SDS011;71113;43.092;-89.268;2023-08-01T05:44:36;0.50;;;0.50;;
78368;SDS011;71113;43.092;-89.268;2023-08-01T05:47:02;0.93;;;0.63;;
78368;SDS011;71113;43.092;-89.268;2023-08-01T05:49:28;1.10;;;0.80;;
78368;SDS011;71113;43.092;-89.268;2023-08-01T05:51:57;1.08;;;0.70;;
78368;SDS011;71113;43.092;-89.268;2023-08-01T05:54:23;0.85;;;0.60;;
78368;SDS011;71113;43.092;-89.268;2023-08-01T05:56:49;0.82;;;0.60;;
78368;SDS011;71113;43.092;-89.268;2023-08-01T05:59:15;1.13;;;0.70;;
78368;SDS011;71113;43.092;-89.268;2023-08-01T06:01:40;1.23;;;0.75;;
78368;SDS011;71113;43.092;-89.268;2023-08-01T06:04:07;0.82;;;0.52;;
78368;SDS011;71113;43.092;-89.268;2023-08-01T06:06:33;0.40;;;0.40;;
78368;SDS011;71113;43.092;-89.268;2023-08-01T06:08:59;0.77;;;0.60;;
78368;SDS011;71113;43.092;-89.268;2023-08-01T06:11:24;0.50;;;0.47;;
78368;SDS011;71113;43.092;-89.268;2023-08-01T06:13:52;0.80;;;0.50;;
78368;SDS011;71113;43.092;-89.268;2023-08-01T06:16:18;0.52;;;0.50;;
78368;SDS011;71113;43.092;-89.268;2023-08-01T06:18:43;0.75;;;0.52;;
78368;SDS011;71113;43.092;-89.268;2023-08-01T06:21:09;1.13;;;0.50;;
78368;SDS011;71113;43.092;-89.268;2023-08-01T06:23:35;0.60;;;0.50;;
78368;SDS011;71113;43.092;-89.268;2023-08-01T06:26:01;1.00;;;0.73;;
78368;SDS011;71113;43.092;-89.268;2023-08-01T06:28:27;0.43;;;0.43;;
78368;SDS011;71113;43.092;-89.268;2023-08-01T06:30:53;0.63;;;0.50;;
78368;SDS011;71113;43.092;-89.268;2023-08-01T06:33:19;0.68;;;0.45;;
78368;SDS011;71113;43.092;-89.268;2023-08-01T06:35:45;0.47;;;0.45;;
78368;SDS011;71113;43.092;-89.268;2023-08-01T06:38:11;1.42;;;0.82;;
78368;SDS011;71113;43.092;-89.268;2023-08-01T06:40:37;0.93;;;0.60;;
78368;SDS011;71113;43.092;-89.268;2023-08-01T06:43:02;0.93;;;0.85;;
78368;SDS011;71113;43.092;-89.268;2023-08-01T06:45:28;0.60;;;0.55;;
78368;SDS011;71113;43.092;-89.268;2023-08-01T06:47:54;0.52;;;0.50;;
78368;SDS011;71113;43.092;-89.268;2023-08-01T06:50:20;0.90;;;0.60;;
78368;SDS011;71113;43.092;-89.268;2023-08-01T06:52:46;1.08;;;0.98;;
78368;SDS011;71113;43.092;-89.268;2023-08-01T06:55:12;0.82;;;0.55;;
78368;SDS011;71113;43.092;-89.268;2023-08-01T06:57:39;0.43;;;0.40;;
78368;SDS011;71113;43.092;-89.268;2023-08-01T07:00:05;0.70;;;0.60;;
78368;SDS011;71113;43.092;-89.268;2023-08-01T07:02:31;0.63;;;0.45;;
78368;SDS011;71113;43.092;-89.268;2023-08-01T07:04:57;1.00;;;0.52;;
78368;SDS011;71113;43.092;-89.268;2023-08-01T07:07:23;0.70;;;0.55;;
78368;SDS011;71113;43.092;-89.268;2023-08-01T07:09:49;1.02;;;0.85;;
78368;SDS011;71113;43.092;-89.268;2023-08-01T07:12:15;0.95;;;0.63;;
78368;SDS011;71113;43.092;-89.268;2023-08-01T07:14:41;0.45;;;0.45;;
78368;SDS011;71113;43.092;-89.268;2023-08-01T07:17:07;1.67;;;1.00;;
78368;SDS011;71113;43.092;-89.268;2023-08-01T07:19:32;1.00;;;0.82;;
78368;SDS011;71113;43.092;-89.268;2023-08-01T07:21:58;1.42;;;0.60;;
78368;SDS011;71113;43.092;-89.268;2023-08-01T07:24:24;1.05;;;0.95;;
78368;SDS011;71113;43.092;-89.268;2023-08-01T07:26:50;0.77;;;0.50;;
78368;SDS011;71113;43.092;-89.268;2023-08-01T07:29:16;0.60;;;0.60;;
78368;SDS011;71113;43.092;-89.268;2023-08-01T07:31:42;0.55;;;0.52;;
78368;SDS011;71113;43.092;-89.268;2023-08-01T07:34:08;0.70;;;0.52;;
78368;SDS011;71113;43.092;-89.268;2023-08-01T07:36:34;0.68;;;0.40;;
78368;SDS011;71113;43.092;-89.268;2023-08-01T07:39:20;0.98;;;0.60;;
78368;SDS011;71113;43.092;-89.268;2023-08-01T07:41:46;0.73;;;0.70;;
78368;SDS011;71113;43.092;-89.268;2023-08-01T07:44:12;0.60;;;0.50;;
78368;SDS011;71113;43.092;-89.268;2023-08-01T07:46:38;0.52;;;0.35;;
78368;SDS011;71113;43.092;-89.268;2023-08-01T07:49:05;1.65;;;1.00;;
78368;SDS011;71113;43.092;-89.268;2023-08-01T07:51:31;1.55;;;0.63;;
78368;SDS011;71113;43.092;-89.268;2023-08-01T07:53:59;0.68;;;0.35;;
78368;SDS011;71113;43.092;-89.268;2023-08-01T07:56:25;0.38;;;0.38;;
78368;SDS011;71113;43.092;-89.268;2023-08-01T07:58:51;0.55;;;0.47;;
78368;SDS011;71113;43.092;-89.268;2023-08-01T08:01:17;0.98;;;0.50;;
78368;SDS011;71113;43.092;-89.268;2023-08-01T08:03:42;0.52;;;0.40;;
78368;SDS011;71113;43.092;-89.268;2023-08-01T08:06:08;1.30;;;0.60;;
78368;SDS011;71113;43.092;-89.268;2023-08-01T08:08:34;1.48;;;0.60;;
78368;SDS011;71113;43.092;-89.268;2023-08-01T08:11:02;1.05;;;0.80;;
78368;SDS011;71113;43.092;-89.268;2023-08-01T08:13:28;1.00;;;0.60;;
78368;SDS011;71113;43.092;-89.268;2023-08-01T08:15:57;0.73;;;0.63;;
78368;SDS011;71113;43.092;-89.268;2023-08-01T08:18:23;0.52;;;0.50;;
78368;SDS011;71113;43.092;-89.268;2023-08-01T08:20:50;0.80;;;0.60;;
78368;SDS011;71113;43.092;-89.268;2023-08-01T08:23:15;0.93;;;0.73;;
78368;SDS011;71113;43.092;-89.268;2023-08-01T08:25:42;0.88;;;0.63;;
78368;SDS011;71113;43.092;-89.268;2023-08-01T08:28:16;1.17;;;0.70;;
78368;SDS011;71113;43.092;-89.268;2023-08-01T08:30:53;0.93;;;0.63;;
78368;SDS011;71113;43.092;-89.268;2023-08-01T08:33:20;0.57;;;0.57;;
78368;SDS011;71113;43.092;-89.268;2023-08-01T08:35:49;0.52;;;0.50;;
78368;SDS011;71113;43.092;-89.268;2023-08-01T08:38:16;1.23;;;0.70;;
78368;SDS011;71113;43.092;-89.268;2023-08-01T08:40:48;0.85;;;0.60;;
78368;SDS011;71113;43.092;-89.268;2023-08-01T08:43:31;0.80;;;0.60;;
78368;SDS011;71113;43.092;-89.268;2023-08-01T08:45:58;1.00;;;0.90;;
78368;SDS011;71113;43.092;-89.268;2023-08-01T08:48:26;0.63;;;0.60;;
78368;SDS011;71113;43.092;-89.268;2023-08-01T08:50:53;0.40;;;0.40;;
78368;SDS011;71113;43.092;-89.268;2023-08-01T08:53:22;1.05;;;0.70;;
78368;SDS011;71113;43.092;-89.268;2023-08-01T08:55:48;1.05;;;0.60;;
78368;SDS011;71113;43.092;-89.268;2023-08-01T08:58:15;1.00;;;0.70;;
78368;SDS011;71113;43.092;-89.268;2023-08-01T09:00:41;0.30;;;0.30;;
78368;SDS011;71113;43.092;-89.268;2023-08-01T09:03:09;0.68;;;0.52;;
78368;SDS011;71113;43.092;-89.268;2023-08-01T09:05:37;0.65;;;0.50;;
78368;SDS011;71113;43.092;-89.268;2023-08-01T09:08:12;0.60;;;0.43;;
78368;SDS011;71113;43.092;-89.268;2023-08-01T09:10:45;0.88;;;0.60;;
78368;SDS011;71113;43.092;-89.268;2023-08-01T09:13:12;0.55;;;0.50;;
78368;SDS011;71113;43.092;-89.268;2023-08-01T09:15:39;0.65;;;0.60;;
78368;SDS011;71113;43.092;-89.268;2023-08-01T09:18:07;1.15;;;0.70;;
78368;SDS011;71113;43.092;-89.268;2023-08-01T09:20:46;1.42;;;0.60;;
78368;SDS011;71113;43.092;-89.268;2023-08-01T09:23:12;0.88;;;0.60;;
78368;SDS011;71113;43.092;-89.268;2023-08-01T09:25:39;0.57;;;0.57;;
78368;SDS011;71113;43.092;-89.268;2023-08-01T09:28:16;0.95;;;0.75;;
78368;SDS011;71113;43.092;-89.268;2023-08-01T09:30:47;0.47;;;0.47;;
78368;SDS011;71113;43.092;-89.268;2023-08-01T09:33:14;1.40;;;0.93;;
78368;SDS011;71113;43.092;-89.268;2023-08-01T09:35:40;0.98;;;0.57;;
78368;SDS011;71113;43.092;-89.268;2023-08-01T09:38:06;0.77;;;0.50;;
78368;SDS011;71113;43.092;-89.268;2023-08-01T09:40:39;0.52;;;0.52;;
78368;SDS011;71113;43.092;-89.268;2023-08-01T09:43:06;1.25;;;0.60;;
78368;SDS011;71113;43.092;-89.268;2023-08-01T09:45:31;0.65;;;0.55;;
78368;SDS011;71113;43.092;-89.268;2023-08-01T09:47:59;1.45;;;0.85;;
78368;SDS011;71113;43.092;-89.268;2023-08-01T09:50:25;1.30;;;0.73;;
78368;SDS011;71113;43.092;-89.268;2023-08-01T09:52:52;0.80;;;0.50;;
78368;SDS011;71113;43.092;-89.268;2023-08-01T09:58:14;0.70;;;0.52;;
78368;SDS011;71113;43.092;-89.268;2023-08-01T10:00:46;0.80;;;0.60;;
78368;SDS011;71113;43.092;-89.268;2023-08-01T10:03:12;1.00;;;0.60;;
78368;SDS011;71113;43.092;-89.268;2023-08-01T10:05:39;0.95;;;0.70;;
78368;SDS011;71113;43.092;-89.268;2023-08-01T10:08:06;1.02;;;0.65;;
78368;SDS011;71113;43.092;-89.268;2023-08-01T10:10:33;0.68;;;0.40;;
78368;SDS011;71113;43.092;-89.268;2023-08-01T10:13:00;1.30;;;0.80;;
78368;SDS011;71113;43.092;-89.268;2023-08-01T10:15:27;1.02;;;0.50;;
78368;SDS011;71113;43.092;-89.268;2023-08-01T10:17:54;1.08;;;0.60;;
78368;SDS011;71113;43.092;-89.268;2023-08-01T10:20:20;1.05;;;0.60;;
78368;SDS011;71113;43.092;-89.268;2023-08-01T10:22:50;0.82;;;0.57;;
78368;SDS011;71113;43.092;-89.268;2023-08-01T10:25:17;1.15;;;0.70;;
78368;SDS011;71113;43.092;-89.268;2023-08-01T10:27:45;0.90;;;0.70;;
78368;SDS011;71113;43.092;-89.268;2023-08-01T10:30:10;0.52;;;0.40;;
78368;SDS011;71113;43.092;-89.268;2023-08-01T10:32:37;1.23;;;0.70;;
78368;SDS011;71113;43.092;-89.268;2023-08-01T10:35:05;1.08;;;0.70;;
78368;SDS011;71113;43.092;-89.268;2023-08-01T10:37:42;0.55;;;0.47;;
78368;SDS011;71113;43.092;-89.268;2023-08-01T10:40:09;1.02;;;0.60;;
78368;SDS011;71113;43.092;-89.268;2023-08-01T10:42:41;2.03;;;0.70;;
78368;SDS011;71113;43.092;-89.268;2023-08-01T10:45:22;0.80;;;0.55;;
78368;SDS011;71113;43.092;-89.268;2023-08-01T10:47:49;0.50;;;0.50;;
78368;SDS011;71113;43.092;-89.268;2023-08-01T10:50:16;0.85;;;0.55;;
78368;SDS011;71113;43.092;-89.268;2023-08-01T10:53:03;1.48;;;0.82;;
78368;SDS011;71113;43.092;-89.268;2023-08-01T10:55:43;0.93;;;0.68;;
78368;SDS011;71113;43.092;-89.268;2023-08-01T11:00:36;0.93;;;0.77;;
78368;SDS011;71113;43.092;-89.268;2023-08-01T11:03:03;0.82;;;0.57;;
78368;SDS011;71113;43.092;-89.268;2023-08-01T11:05:29;0.60;;;0.60;;
78368;SDS011;71113;43.092;-89.268;2023-08-01T11:07:58;1.13;;;0.73;;
78368;SDS011;71113;43.092;-89.268;2023-08-01T11:10:26;0.77;;;0.77;;
78368;SDS011;71113;43.092;-89.268;2023-08-01T11:12:53;1.67;;;1.10;;
78368;SDS011;71113;43.092;-89.268;2023-08-01T11:15:19;2.17;;;0.80;;
78368;SDS011;71113;43.092;-89.268;2023-08-01T11:17:49;1.92;;;0.82;;
78368;SDS011;71113;43.092;-89.268;2023-08-01T11:20:18;1.63;;;1.00;;
78368;SDS011;71113;43.092;-89.268;2023-08-01T11:22:58;1.88;;;1.10;;
78368;SDS011;71113;43.092;-89.268;2023-08-01T11:28:15;1.73;;;1.00;;
78368;SDS011;71113;43.092;-89.268;2023-08-01T11:30:41;1.67;;;0.98;;
78368;SDS011;71113;43.092;-89.268;2023-08-01T11:33:15;6.43;;;1.27;;
78368;SDS011;71113;43.092;-89.268;2023-08-01T11:35:46;2.17;;;1.20;;
78368;SDS011;71113;43.092;-89.268;2023-08-01T11:38:23;5.25;;;1.45;;
78368;SDS011;71113;43.092;-89.268;2023-08-01T11:40:51;4.05;;;1.30;;
78368;SDS011;71113;43.092;-89.268;2023-08-01T11:43:17;5.97;;;1.42;;
78368;SDS011;71113;43.092;-89.268;2023-08-01T11:45:53;5.13;;;1.48;;
78368;SDS011;71113;43.092;-89.268;2023-08-01T11:48:23;2.92;;;1.52;;
78368;SDS011;71113;43.092;-89.268;2023-08-01T11:50:49;5.65;;;1.50;;
78368;SDS011;71113;43.092;-89.268;2023-08-01T11:53:22;2.55;;;1.25;;
78368;SDS011;71113;43.092;-89.268;2023-08-01T11:55:48;5.72;;;1.95;;
78368;SDS011;71113;43.092;-89.268;2023-08-01T11:58:34;7.72;;;2.20;;
78368;SDS011;71113;43.092;-89.268;2023-08-01T12:01:02;4.55;;;1.95;;
78368;SDS011;71113;43.092;-89.268;2023-08-01T12:03:42;9.73;;;2.13;;
78368;SDS011;71113;43.092;-89.268;2023-08-01T12:06:12;5.60;;;2.05;;
78368;SDS011;71113;43.092;-89.268;2023-08-01T12:08:39;3.53;;;1.60;;
78368;SDS011;71113;43.092;-89.268;2023-08-01T12:11:17;4.80;;;2.10;;
78368;SDS011;71113;43.092;-89.268;2023-08-01T12:13:45;4.28;;;1.63;;
78368;SDS011;71113;43.092;-89.268;2023-08-01T12:16:11;4.55;;;1.52;;
78368;SDS011;71113;43.092;-89.268;2023-08-01T12:18:38;5.38;;;1.65;;
78368;SDS011;71113;43.092;-89.268;2023-08-01T12:21:04;4.40;;;1.38;;
78368;SDS011;71113;43.092;-89.268;2023-08-01T12:23:31;3.70;;;1.50;;
78368;SDS011;71113;43.092;-89.268;2023-08-01T12:25:57;3.35;;;1.48;;
78368;SDS011;71113;43.092;-89.268;2023-08-01T12:28:23;4.13;;;1.40;;
78368;SDS011;71113;43.092;-89.268;2023-08-01T12:30:48;2.95;;;1.15;;
78368;SDS011;71113;43.092;-89.268;2023-08-01T12:33:16;3.03;;;1.35;;
78368;SDS011;71113;43.092;-89.268;2023-08-01T12:35:42;2.38;;;1.13;;
78368;SDS011;71113;43.092;-89.268;2023-08-01T12:38:08;5.18;;;1.70;;
78368;SDS011;71113;43.092;-89.268;2023-08-01T12:40:35;86.43;;;38.95;;
78368;SDS011;71113;43.092;-89.268;2023-08-01T12:43:01;130.05;;;55.83;;
78368;SDS011;71113;43.092;-89.268;2023-08-01T12:45:27;123.15;;;51.78;;
78368;SDS011;71113;43.092;-89.268;2023-08-01T12:47:53;110.10;;;47.95;;
78368;SDS011;71113;43.092;-89.268;2023-08-01T12:50:18;79.90;;;34.03;;
78368;SDS011;71113;43.092;-89.268;2023-08-01T12:52:44;73.22;;;30.67;;
78368;SDS011;71113;43.092;-89.268;2023-08-01T12:55:10;69.82;;;29.55;;
78368;SDS011;71113;43.092;-89.268;2023-08-01T12:57:36;58.42;;;25.35;;
78368;SDS011;71113;43.092;-89.268;2023-08-01T13:00:02;53.50;;;24.23;;
78368;SDS011;71113;43.092;-89.268;2023-08-01T13:02:29;45.72;;;20.17;;
78368;SDS011;71113;43.092;-89.268;2023-08-01T13:04:54;41.15;;;18.63;;
78368;SDS011;71113;43.092;-89.268;2023-08-01T13:07:21;42.35;;;18.42;;
78368;SDS011;71113;43.092;-89.268;2023-08-01T13:09:46;37.05;;;16.13;;
78368;SDS011;71113;43.092;-89.268;2023-08-01T13:12:12;33.95;;;14.90;;
78368;SDS011;71113;43.092;-89.268;2023-08-01T13:14:38;31.85;;;13.70;;
78368;SDS011;71113;43.092;-89.268;2023-08-01T13:17:04;27.88;;;13.40;;
78368;SDS011;71113;43.092;-89.268;2023-08-01T13:19:30;27.55;;;12.52;;
78368;SDS011;71113;43.092;-89.268;2023-08-01T13:21:56;26.00;;;11.77;;
78368;SDS011;71113;43.092;-89.268;2023-08-01T13:24:22;23.63;;;10.77;;
78368;SDS011;71113;43.092;-89.268;2023-08-01T13:26:48;22.55;;;10.27;;
78368;SDS011;71113;43.092;-89.268;2023-08-01T13:29:14;22.92;;;10.27;;
78368;SDS011;71113;43.092;-89.268;2023-08-01T13:31:40;17.17;;;9.05;;
78368;SDS011;71113;43.092;-89.268;2023-08-01T13:34:07;17.63;;;8.40;;
78368;SDS011;71113;43.092;-89.268;2023-08-01T13:36:33;17.05;;;8.50;;
78368;SDS011;71113;43.092;-89.268;2023-08-01T13:38:59;17.63;;;7.55;;
78368;SDS011;71113;43.092;-89.268;2023-08-01T13:41:25;16.15;;;8.07;;
78368;SDS011;71113;43.092;-89.268;2023-08-01T13:43:51;14.85;;;7.32;;
78368;SDS011;71113;43.092;-89.268;2023-08-01T13:46:17;14.30;;;6.45;;
78368;SDS011;71113;43.092;-89.268;2023-08-01T13:48:47;15.60;;;6.55;;
78368;SDS011;71113;43.092;-89.268;2023-08-01T13:51:13;12.93;;;6.10;;
78368;SDS011;71113;43.092;-89.268;2023-08-01T13:53:39;13.88;;;6.55;;
78368;SDS011;71113;43.092;-89.268;2023-08-01T13:56:08;11.85;;;5.90;;
78368;SDS011;71113;43.092;-89.268;2023-08-01T13:58:37;11.30;;;5.95;;
78368;SDS011;71113;43.092;-89.268;2023-08-01T14:01:07;12.25;;;5.30;;
78368;SDS011;71113;43.092;-89.268;2023-08-01T14:03:35;10.63;;;4.72;;
78368;SDS011;71113;43.092;-89.268;2023-08-01T14:06:05;10.75;;;4.68;;
78368;SDS011;71113;43.092;-89.268;2023-08-01T14:08:32;8.70;;;4.35;;
78368;SDS011;71113;43.092;-89.268;2023-08-01T14:10:58;9.48;;;4.22;;
78368;SDS011;71113;43.092;-89.268;2023-08-01T14:13:24;9.02;;;4.25;;
78368;SDS011;71113;43.092;-89.268;2023-08-01T14:15:50;7.90;;;3.92;;
78368;SDS011;71113;43.092;-89.268;2023-08-01T14:18:16;8.27;;;4.20;;
78368;SDS011;71113;43.092;-89.268;2023-08-01T14:20:42;7.45;;;3.70;;
78368;SDS011;71113;43.092;-89.268;2023-08-01T14:23:08;7.40;;;4.13;;
78368;SDS011;71113;43.092;-89.268;2023-08-01T14:25:34;6.63;;;3.40;;